createdAt,value
2024-03-12T00:01:52.176Z,60100.13
2024-03-12T00:06:54.406Z,60108.56
2024-03-12T00:11:56.718Z,60091.72
2024-03-12T00:17:01.211Z,60060.19
2024-03-12T00:22:03.563Z,60116.97
2024-03-12T00:27:07.238Z,60108.56
2024-03-12T00:32:10.807Z,60081.22
2024-03-12T00:37:13.032Z,60041.28
2024-03-12T00:42:15.383Z,60095.94
2024-03-12T00:47:19.000Z,60091.72
2024-03-12T00:52:23.861Z,60087.53
2024-03-12T00:57:28.347Z,60112.75
2024-03-12T01:02:31.893Z,60116.97
2024-03-12T01:07:35.196Z,60100.13
2024-03-12T01:12:39.188Z,60066.50
2024-03-12T01:17:43.614Z,60089.63
2024-03-12T01:22:46.082Z,60116.97
2024-03-12T01:27:48.757Z,60083.31
2024-03-12T01:32:52.775Z,60114.84
2024-03-12T01:37:58.194Z,60129.56
2024-03-12T01:43:10.625Z,60079.13
2024-03-12T01:48:14.426Z,60066.50
2024-03-12T01:53:17.587Z,60045.47
2024-03-12T01:58:19.935Z,60093.84
2024-03-12T02:03:24.236Z,60102.25
2024-03-12T02:08:26.361Z,60085.44
2024-03-12T02:13:28.553Z,60108.56
2024-03-12T02:18:34.229Z,60070.72
2024-03-12T02:23:38.855Z,60093.84
2024-03-12T02:28:41.135Z,60125.38
2024-03-12T02:33:43.564Z,60116.97
2024-03-12T02:38:47.255Z,60095.94
2024-03-12T02:43:49.521Z,60074.91
2024-03-12T02:48:54.590Z,60131.69
2024-03-12T02:53:58.226Z,60108.56
2024-03-12T02:59:00.460Z,60125.38
2024-03-12T03:04:03.393Z,60104.34
2024-03-12T03:09:06.973Z,60116.97
2024-03-12T03:14:09.121Z,60121.16
2024-03-12T03:19:11.693Z,60140.09
2024-03-12T03:24:15.352Z,60087.53
2024-03-12T03:29:17.614Z,60137.97
2024-03-12T03:34:19.815Z,60104.34
2024-03-12T03:39:25.604Z,60091.72
2024-03-12T03:44:29.352Z,60142.19
2024-03-12T03:49:31.718Z,60121.16
2024-03-12T03:54:35.304Z,60140.09
2024-03-12T03:59:37.484Z,60112.75
2024-03-12T04:04:39.693Z,60131.69
2024-03-12T04:09:43.464Z,60146.38
2024-03-12T04:14:45.662Z,60072.81
2024-03-12T04:19:49.142Z,60112.75
2024-03-12T04:24:52.636Z,60102.25
2024-03-12T04:29:54.791Z,60104.34
2024-03-12T04:34:56.902Z,60125.38
2024-03-12T04:40:00.785Z,60058.09
2024-03-12T04:45:05.837Z,60104.34
2024-03-12T04:50:09.550Z,60083.31
2024-03-12T04:55:14.761Z,60079.13
2024-03-12T05:00:21.080Z,60119.06
2024-03-12T05:05:24.759Z,60095.94
2024-03-12T05:10:28.470Z,60146.38
2024-03-12T05:15:30.750Z,60110.66
2024-03-12T05:20:34.857Z,60108.56
2024-03-12T05:25:41.670Z,60125.38
2024-03-12T05:30:44.157Z,60116.97
2024-03-12T05:35:50.841Z,60116.97
2024-03-12T05:41:09.926Z,60093.84
2024-03-12T05:46:31.190Z,60079.13
2024-03-12T05:51:36.165Z,60093.84
2024-03-12T05:56:40.702Z,60095.94
2024-03-12T06:01:43.112Z,60104.34
2024-03-12T06:06:45.512Z,60108.56
2024-03-12T06:11:49.051Z,60125.38
2024-03-12T06:16:51.316Z,60123.25
2024-03-12T06:21:53.493Z,60129.56
2024-03-12T06:26:57.567Z,60112.75
2024-03-12T06:32:00.476Z,60125.38
2024-03-12T06:37:04.176Z,60112.75
2024-03-12T06:42:08.817Z,60102.25
2024-03-12T06:47:11.573Z,60091.72
2024-03-12T06:52:13.814Z,60091.72
2024-03-12T06:57:21.185Z,60110.66
2024-03-12T07:02:23.540Z,60108.56
2024-03-12T07:07:26.663Z,60093.84
2024-03-12T07:12:31.661Z,60119.06
2024-03-12T07:17:34.558Z,60083.31
2024-03-12T07:22:37.844Z,60089.63
2024-03-12T07:27:41.506Z,60129.56
2024-03-12T07:32:43.789Z,60108.56
2024-03-12T07:37:47.283Z,60108.56
2024-03-12T07:42:51.062Z,60108.56
2024-03-12T07:47:53.495Z,60106.44
2024-03-12T07:52:57.049Z,60137.97
2024-03-12T07:58:02.457Z,60131.69
2024-03-12T08:03:04.970Z,60079.13
2024-03-12T08:08:08.883Z,60121.16
2024-03-12T08:13:12.601Z,60081.22
2024-03-12T08:18:20.547Z,60108.56
2024-03-12T08:23:25.174Z,60140.09
2024-03-12T08:28:29.211Z,60112.75
2024-03-12T08:33:31.556Z,60108.56
2024-03-12T08:38:34.427Z,60108.56
2024-03-12T08:43:38.230Z,60129.56
2024-03-12T08:48:40.522Z,60106.44
2024-03-12T08:53:42.745Z,60106.44
2024-03-12T08:58:46.310Z,60129.56
2024-03-12T09:03:48.602Z,60100.13
2024-03-12T09:08:51.918Z,60095.94
2024-03-12T09:13:55.542Z,60135.88
2024-03-12T09:18:57.746Z,60137.97
2024-03-12T09:24:02.249Z,60129.56
2024-03-12T09:29:09.073Z,60108.56
2024-03-12T09:34:12.088Z,60106.44
2024-03-12T09:39:14.541Z,60104.34
2024-03-12T09:44:18.091Z,60110.66
2024-03-12T09:49:20.527Z,60083.31
2024-03-12T09:54:24.940Z,60083.31
2024-03-12T09:59:28.434Z,60112.75
2024-03-12T10:04:30.854Z,60089.63
2024-03-12T10:09:33.222Z,60112.75
2024-03-12T10:14:36.781Z,60087.53
2024-03-12T10:19:39.065Z,60079.13
2024-03-12T10:24:41.213Z,60102.25
2024-03-12T10:29:44.906Z,60129.56
2024-03-12T10:34:48.147Z,60121.16
2024-03-12T10:39:50.400Z,60133.78
2024-03-12T10:44:53.886Z,60089.63
2024-03-12T10:49:57.811Z,60087.53
2024-03-12T10:55:05.838Z,60137.97
2024-03-12T11:00:21.830Z,60091.72
2024-03-12T11:05:28.952Z,60095.94
2024-03-12T11:10:33.813Z,60102.25
2024-03-12T11:15:37.800Z,60112.75
2024-03-12T11:20:41.166Z,60146.38
2024-03-12T11:25:46.992Z,60116.97
2024-03-12T11:31:05.580Z,60150.59
2024-03-12T11:36:09.911Z,60108.56
2024-03-12T11:41:12.611Z,60137.97
2024-03-12T11:46:22.153Z,60123.25
2024-03-12T11:51:24.503Z,60108.56
2024-03-12T11:56:28.606Z,60121.16
2024-03-12T12:01:33.826Z,60106.44
2024-03-12T12:06:37.436Z,60127.47
2024-03-12T12:11:41.788Z,60108.56
2024-03-12T12:16:45.591Z,60150.59
2024-03-12T12:21:47.851Z,60110.66
2024-03-12T12:26:50.229Z,60093.84
2024-03-12T12:31:54.501Z,60133.78
2024-03-12T12:36:57.362Z,60146.38
2024-03-12T12:42:00.420Z,60091.72
2024-03-12T12:47:05.931Z,60114.84
2024-03-12T12:52:08.661Z,60116.97
2024-03-12T12:57:11.940Z,60095.94
2024-03-12T13:02:19.847Z,60108.56
2024-03-12T13:07:33.028Z,60116.97
2024-03-12T13:12:36.217Z,60087.53
2024-03-12T13:17:40.844Z,60108.56
2024-03-12T13:22:44.963Z,60098.03
2024-03-12T13:27:47.554Z,60106.44
2024-03-12T13:32:52.348Z,60104.34
2024-03-12T13:37:54.524Z,60121.16
2024-03-12T13:42:57.404Z,60146.38
2024-03-12T13:48:01.226Z,60093.84
2024-03-12T13:53:04.595Z,60146.38
2024-03-12T13:58:08.434Z,60085.44
2024-03-12T14:03:12.573Z,60131.69
2024-03-12T14:08:15.404Z,60131.69
2024-03-12T14:13:20.293Z,60121.16
2024-03-12T14:18:24.632Z,60121.16
2024-03-12T14:23:27.726Z,60121.16
2024-03-12T14:28:31.074Z,60112.75
2024-03-12T14:33:34.774Z,60125.38
2024-03-12T14:38:37.006Z,60152.69
2024-03-12T14:43:39.687Z,60142.19
2024-03-12T14:48:43.301Z,60133.78
2024-03-12T14:53:45.656Z,60137.97
2024-03-12T14:58:47.915Z,60121.16
2024-03-12T15:03:51.582Z,60146.38
2024-03-12T15:08:55.465Z,60100.13
2024-03-12T15:13:57.629Z,60135.88
2024-03-12T15:19:01.169Z,60129.56
2024-03-12T15:24:03.697Z,60142.19
2024-03-12T15:29:06.062Z,60112.75
2024-03-12T15:34:09.715Z,60137.97
2024-03-12T15:39:12.068Z,60108.56
2024-03-12T15:44:14.582Z,60152.69
2024-03-12T15:49:18.850Z,60150.59
2024-03-12T15:54:21.130Z,60137.97
2024-03-12T15:59:23.382Z,60131.69
2024-03-12T16:04:27.045Z,60163.22
2024-03-12T16:09:30.595Z,60133.78
2024-03-12T16:14:32.817Z,60106.44
2024-03-12T16:19:37.008Z,60129.56
2024-03-12T16:24:39.181Z,60114.84
2024-03-12T16:29:41.459Z,60165.31
2024-03-12T16:34:46.438Z,60137.97
2024-03-12T16:39:48.801Z,60129.56
2024-03-12T16:44:52.961Z,60144.28
2024-03-12T16:49:56.462Z,60129.56
2024-03-12T16:54:59.618Z,60148.50
2024-03-12T17:00:02.154Z,60146.38
2024-03-12T17:05:06.983Z,60184.22
2024-03-12T17:10:10.034Z,60129.56
2024-03-12T17:15:15.498Z,60154.81
2024-03-12T17:20:19.114Z,60154.81
2024-03-12T17:25:21.880Z,60156.91
2024-03-12T17:30:25.821Z,60152.69
2024-03-12T17:35:31.164Z,60129.56
2024-03-12T17:40:34.095Z,60140.09
2024-03-12T17:45:37.072Z,60150.59
2024-03-12T17:50:41.285Z,60165.31
2024-03-12T17:55:47.152Z,60159.00
2024-03-12T18:00:51.975Z,60163.22
2024-03-12T18:05:58.012Z,60146.38
2024-03-12T18:11:01.781Z,60163.22
2024-03-12T18:16:04.660Z,60163.22
2024-03-12T18:21:11.831Z,60121.16
2024-03-12T18:26:14.102Z,60156.91
2024-03-12T18:31:16.679Z,60137.97
2024-03-12T18:36:20.543Z,60159.00
2024-03-12T18:41:22.947Z,60133.78
2024-03-12T18:46:25.294Z,60156.91
2024-03-12T18:51:29.679Z,60129.56
2024-03-12T18:56:32.429Z,60154.81
2024-03-12T19:01:37.426Z,60177.94
2024-03-12T19:06:42.779Z,60116.97
2024-03-12T19:11:45.504Z,60177.94
2024-03-12T19:16:52.535Z,60142.19
2024-03-12T19:21:57.045Z,60154.81
2024-03-12T19:26:59.344Z,60171.63
2024-03-12T19:32:03.993Z,60135.88
2024-03-12T19:37:08.728Z,60135.88
2024-03-12T19:42:12.844Z,60173.72
2024-03-12T19:47:16.844Z,60150.59
2024-03-12T19:52:20.725Z,60171.63
2024-03-12T19:57:23.045Z,60167.41
2024-03-12T20:02:26.641Z,60171.63
2024-03-12T20:07:30.893Z,60167.41
2024-03-12T20:12:33.119Z,60163.22
2024-03-12T20:17:35.283Z,60159.00
2024-03-12T20:22:40.336Z,60127.47
2024-03-12T20:27:42.663Z,60146.38
2024-03-12T20:32:45.469Z,60180.03
2024-03-12T20:37:49.186Z,60171.63
2024-03-12T20:42:51.422Z,60146.38
2024-03-12T20:47:53.756Z,60159.00
2024-03-12T20:52:57.398Z,60171.63
2024-03-12T20:58:00.205Z,60133.78
2024-03-12T21:03:02.534Z,60150.59
2024-03-12T21:08:08.357Z,60171.63
2024-03-12T21:13:12.435Z,60175.81
2024-03-12T21:18:16.181Z,60192.63
2024-03-12T21:23:19.845Z,60182.13
2024-03-12T21:28:22.509Z,60171.63
2024-03-12T21:33:25.821Z,60156.91
2024-03-12T21:38:29.999Z,60219.97
2024-03-12T21:43:32.173Z,60184.22
2024-03-12T21:48:34.314Z,60167.41
2024-03-12T21:53:37.986Z,60163.22
2024-03-12T21:58:48.553Z,60161.09
2024-03-12T22:03:51.770Z,60182.13
2024-03-12T22:08:55.877Z,60154.81
2024-03-12T22:13:58.624Z,60129.56
2024-03-12T22:19:05.328Z,60167.41
2024-03-12T22:24:14.205Z,60184.22
2024-03-12T22:29:16.424Z,60163.22
2024-03-12T22:34:18.824Z,60156.91
2024-03-12T22:39:24.071Z,60201.06
2024-03-12T22:44:26.840Z,60167.41
2024-03-12T22:49:29.254Z,60182.13
2024-03-12T22:54:33.836Z,60144.28
2024-03-12T22:59:36.606Z,60133.78
2024-03-12T23:04:41.027Z,60150.59
2024-03-12T23:09:45.112Z,60171.63
2024-03-12T23:14:50.025Z,60142.19
2024-03-12T23:19:52.085Z,60175.81
2024-03-12T23:24:55.800Z,60175.81
2024-03-12T23:30:01.188Z,60167.41
2024-03-12T23:35:03.571Z,60177.94
2024-03-12T23:40:08.444Z,60171.63
2024-03-12T23:45:11.116Z,60167.41
2024-03-12T23:50:13.377Z,60180.03
2024-03-12T23:55:17.036Z,60146.38
